Hopwood, PA (15445)

9:20 PM EDT on October 31, 2014 (GMT -0400)
Donna's Weather | Change Station
CLOSE
Current Station
Personal Weather Station
Location: Markleysburg, PA
Elevation: 2306 ft
Nearby Weather Stations

Elev 2306 ft 39.77 °N, 79.50 °W | Updated 5 seconds ago

Rain
Rain
39.2 °F
Feels Like 39 °F
N
0.0
Wind Variable Wind from North
Gusts 0.0 mph

Today
High -- | Low -- °F
--% Chance of Precip.
Yesterday
High -- | Low -- °F
Precip. -- in
7:46 AM 6:17 PM
First Quarter, 61% visible
Pressure 29.89 in
Visibility 7.0 miles
Clouds Few 600 ft
Mostly Cloudy 2200 ft
Overcast 3000 ft
Windchill 39 °F
Dew Point 36 °F
Humidity 90%
Rainfall 0.00 in
Snow Depth Not available.
UV 0 out of 12
Pollen .10 out of 12
Air Quality Not available.
Flu Activity Not available.
METAR KMGW 010053Z 01004KT 7SM -RA FEW006 BKN022 OVC030 06/04 A2988 RMK AO2 SLP122 P0002 T00610039

More Conditions Fewer Conditions

Pressure 29.89 in
Visibility 7.0 miles
Clouds Few 600 ft
Mostly Cloudy 2200 ft
Overcast 3000 ft
Windchill 39 °F
Dew Point 36 °F
Humidity 90%
Rainfall 0.00 in
Snow Depth Not available.
UV 0 out of 12
Pollen .10 out of 12
Air Quality Not available.
Flu Activity Not available.
METAR KMGW 010053Z 01004KT 7SM -RA FEW006 BKN022 OVC030 06/04 A2988 RMK AO2 SLP122 P0002 T00610039

More Conditions Fewer Conditions

10-Day Weather Forecast

Almanac

Astronomy

Oct. 31, 2014 Rise Set
Actual Time
Civil Twilight
Nautical Twilight
Astronomical Twilight
Moon
Length of Visible Light
Length of Day
Tomorrow will be .
, % of the Moon is Illuminated

Today's Extremes

State Highs State Lows

Community

WunderPhotos

Upload Photos

1,766,798 photos uploaded!

WunderBlogs® & News

Nearby

Air Quality

  Air Quality AQ Index Pollutant
Not available.

Snow Depth

Station Depth Elevation

Earthquake Activity

City Distance Mag. Time & Date
Minimum magnitude displayed is 2.5.

Coastal Water Temperatures

Place Temperature

Nearby Weather Stations